Time;durP1;ratioP1;P1;durP2;ratioP2;P2;SDS_P1;SDS_P2;PMS_P1;PMS_P2;Temp;Humidity;BMP_temperature;BMP_pressure;BME280_temperature;BME280_humidity;BME280_pressure;Samples;Min_cycle;Max_cycle;Signal;HPM_P1;HPM_P2
2023/04/01 00:03:12;;;;;;;10.47;2.90;;;10.70;99.90;;;;;;5042316;28;20185;-94
2023/04/01 00:05:37;;;;;;;10.30;3.40;;;10.80;99.90;;;;;;5042917;28;20581;-94
2023/04/01 00:09:10;;;;;;;13.10;3.30;;;10.80;99.90;;;;;;5060494;28;20191;-93
2023/04/01 00:12:02;;;;;;;7.17;3.10;;;10.70;99.90;;;;;;5061288;28;20188;-94
2023/04/01 00:15:42;;;;;;;6.30;3.33;;;10.70;99.90;;;;;;5047969;28;20266;-94
2023/04/01 00:26:21;;;;;;;;;;;;;;;;;;;;;
2023/04/01 00:33:02;;;;;;;;;;;;;;;;;;;;;
2023/04/01 00:39:39;;;;;;;8.43;2.60;;;10.60;99.90;;;;;;4959631;28;20205;-92
2023/04/01 00:43:17;;;;;;;5.67;2.77;;;10.70;99.90;;;;;;4892247;29;20178;-95
2023/04/01 00:50:13;;;;;;;5.93;2.73;;;10.60;99.90;;;;;;4893491;29;20210;-94
2023/04/01 01:04:25;;;;;;;6.23;1.90;;;10.50;99.90;;;;;;4872606;29;20179;-95
2023/04/01 01:07:40;;;;;;;5.10;1.70;;;10.60;99.90;;;;;;4931596;28;20193;-94
2023/04/01 01:11:36;;;;;;;5.63;1.73;;;10.60;99.90;;;;;;5022109;28;20178;-96
2023/04/01 01:14:52;;;;;;;;;;;;;;;;;;;;;
2023/04/01 01:18:30;;;;;;;4.00;1.47;;;10.70;99.90;;;;;;4953459;28;20254;-93
2023/04/01 01:21:36;;;;;;;3.20;1.27;;;10.70;99.90;;;;;;4942991;28;20278;-94
2023/04/01 01:25:05;;;;;;;3.53;1.20;;;10.60;99.90;;;;;;4999181;28;20310;-94
2023/04/01 01:28:11;;;;;;;3.53;1.23;;;10.60;99.90;;;;;;5018756;28;20176;-95
2023/04/01 01:31:17;;;;;;;5.17;2.00;;;10.60;99.90;;;;;;5051194;28;20190;-95
2023/04/01 01:34:21;;;;;;;5.77;2.37;;;10.60;99.90;;;;;;5050965;28;20328;-94
2023/04/01 01:37:22;;;;;;;5.27;2.30;;;10.90;99.90;;;;;;5056957;28;20211;-95
2023/04/01 01:40:38;;;;;;;4.07;2.20;;;10.80;99.90;;;;;;5043033;28;20239;-95
2023/04/01 01:43:53;;;;;;;5.83;2.57;;;10.80;99.90;;;;;;4959256;28;20188;-94
2023/04/01 02:01:47;;;;;;;;;;;;;;;;;;;;;
2023/04/01 02:08:53;;;;;;;;;;;;;;;;;;;;;
2023/04/01 02:12:16;;;;;;;7.33;3.97;;;10.60;99.90;;;;;;4800793;29;20268;-93
2023/04/01 02:22:03;;;;;;;9.30;3.63;;;10.60;99.90;;;;;;4900412;29;20247;-91
2023/04/01 02:35:25;;;;;;;12.30;4.43;;;10.50;99.90;;;;;;4903548;29;20210;-92
2023/04/01 02:38:34;;;;;;;7.63;4.10;;;10.40;99.90;;;;;;4932499;28;20194;-92
2023/04/01 02:45:15;;;;;;;10.33;4.10;;;10.40;99.90;;;;;;5001253;28;20185;-94
2023/04/01 02:48:32;;;;;;;10.53;4.30;;;10.40;99.90;;;;;;5028862;28;20176;-93
2023/04/01 02:52:12;;;;;;;;;;;;;;;;;;;;;
2023/04/01 02:55:13;;;;;;;10.83;4.03;;;10.40;99.90;;;;;;4976866;28;20213;-93
2023/04/01 02:58:06;;;;;;;10.40;5.30;;;10.40;99.90;;;;;;4961432;28;20266;-94
2023/04/01 03:01:30;;;;;;;9.53;5.03;;;10.40;99.90;;;;;;5039557;28;20183;-94
2023/04/01 03:04:21;;;;;;;10.13;4.47;;;10.30;99.90;;;;;;5034387;28;20189;-94
2023/04/01 03:07:20;;;;;;;9.27;4.20;;;10.30;99.90;;;;;;5036772;28;20201;-93
2023/04/01 03:09:55;;;;;;;9.53;4.57;;;10.30;99.90;;;;;;5036492;28;20250;-94
2023/04/01 03:12:29;;;;;;;8.37;4.67;;;10.20;99.90;;;;;;5040582;28;20265;-94
2023/04/01 03:15:09;;;;;;;7.97;5.07;;;10.30;99.90;;;;;;5039686;28;20205;-93
2023/04/01 03:17:52;;;;;;;10.20;4.93;;;10.30;99.90;;;;;;5049492;28;20208;-93
2023/04/01 03:20:27;;;;;;;8.53;5.53;;;10.20;99.90;;;;;;5056116;28;20257;-95
2023/04/01 03:23:09;;;;;;;11.63;6.33;;;10.20;99.90;;;;;;5047320;28;20214;-96
2023/04/01 03:25:45;;;;;;;9.60;6.23;;;10.20;99.90;;;;;;5041983;28;20188;-95
2023/04/01 03:29:06;;;;;;;;;;;;;;;;;;;;;
2023/04/01 03:31:59;;;;;;;9.67;6.40;;;10.20;99.90;;;;;;5058542;28;20267;-94
2023/04/01 03:35:11;;;;;;;12.73;7.53;;;10.20;99.90;;;;;;5038203;28;20260;-94
2023/04/01 03:37:59;;;;;;;;;;;;;;;;;;;;;
2023/04/01 03:40:41;;;;;;;11.20;7.03;;;10.20;99.90;;;;;;5062742;28;20244;-91
2023/04/01 03:47:06;;;;;;;15.43;7.80;;;10.20;99.90;;;;;;5071585;28;20172;-93
2023/04/01 03:50:19;;;;;;;;;;;;;;;;;;;;;
2023/04/01 03:53:01;;;;;;;12.80;7.07;;;10.30;99.90;;;;;;5066807;28;20217;-93
2023/04/01 03:55:47;;;;;;;12.93;7.13;;;10.30;99.90;;;;;;5044671;28;20286;-92
2023/04/01 04:02:36;;;;;;;16.37;6.67;;;10.30;99.90;;;;;;5058718;28;20184;-92
2023/04/01 04:08:29;;;;;;;12.37;7.17;;;10.20;99.90;;;;;;5056987;28;20199;-93
2023/04/01 04:12:19;;;;;;;;;;;;;;;;;;;;;
2023/04/01 04:15:13;;;;;;;;;;;;;;;;;;;;;
2023/04/01 04:18:23;;;;;;;10.47;5.47;;;10.40;99.90;;;;;;5043999;28;20182;-93
2023/04/01 04:25:37;;;;;;;;;;;;;;;;;;;;;
2023/04/01 04:28:02;;;;;;;9.20;5.40;;;10.30;99.90;;;;;;5036417;28;20171;-93
2023/04/01 04:31:04;;;;;;;8.23;5.13;;;10.20;99.90;;;;;;5025237;28;20184;-93
2023/04/01 04:34:05;;;;;;;6.00;4.90;;;10.20;99.90;;;;;;5026359;28;20672;-93
2023/04/01 04:36:37;;;;;;;10.40;5.00;;;10.20;99.90;;;;;;5009103;28;20212;-93
2023/04/01 04:39:16;;;;;;;7.87;4.50;;;10.20;99.90;;;;;;5040198;28;20700;-95
2023/04/01 04:42:03;;;;;;;9.00;4.87;;;10.20;99.90;;;;;;5041457;28;20197;-92
2023/04/01 04:44:48;;;;;;;8.77;4.70;;;10.20;99.90;;;;;;5058785;28;20173;-94
2023/04/01 04:47:33;;;;;;;5.63;4.23;;;10.10;99.90;;;;;;5038934;28;20208;-94
2023/04/01 04:54:37;;;;;;;;;;;;;;;;;;;;;
2023/04/01 04:57:34;;;;;;;7.53;4.27;;;10.10;99.90;;;;;;5065806;28;20177;-93
2023/04/01 05:01:14;;;;;;;;;;;;;;;;;;;;;
2023/04/01 05:04:16;;;;;;;7.23;4.83;;;10.20;99.90;;;;;;5063183;28;20164;-93
2023/04/01 05:07:25;;;;;;;8.33;4.50;;;10.20;99.90;;;;;;4940443;29;20182;-92
2023/04/01 05:14:02;;;;;;;6.77;5.00;;;10.20;99.90;;;;;;4996847;28;20186;-93
2023/04/01 05:17:11;;;;;;;7.67;4.77;;;10.20;99.90;;;;;;4983349;28;20274;-93
2023/04/01 05:20:44;;;;;;;;;;;;;;;;;;;;;
2023/04/01 05:23:50;;;;;;;6.80;4.90;;;10.20;99.90;;;;;;4938983;28;20222;-93
2023/04/01 05:27:03;;;;;;;7.47;4.97;;;10.10;99.90;;;;;;4981212;28;20163;-92
2023/04/01 05:29:47;;;;;;;7.93;5.27;;;10.10;99.90;;;;;;4958106;28;20183;-93
2023/04/01 05:33:18;;;;;;;8.90;5.87;;;10.00;99.90;;;;;;4981288;28;20188;-93
2023/04/01 05:40:42;;;;;;;;;;;;;;;;;;;;;
2023/04/01 05:54:46;;;;;;;;;;;;;;;;;;;;;
2023/04/01 05:57:50;;;;;;;14.40;7.70;;;10.00;99.90;;;;;;4850962;29;20267;-93
2023/04/01 06:01:08;;;;;;;11.70;8.17;;;10.10;99.90;;;;;;4898892;29;20527;-93
2023/04/01 06:03:52;;;;;;;10.67;7.43;;;10.00;99.90;;;;;;4904790;29;20181;-93
2023/04/01 06:10:47;;;;;;;;;;;;;;;;;;;;;
2023/04/01 06:14:07;;;;;;;14.13;8.50;;;10.00;99.90;;;;;;4952605;28;20282;-95
2023/04/01 06:21:03;;;;;;;13.63;8.13;;;10.00;99.90;;;;;;4935311;29;20265;-94
2023/04/01 06:24:21;;;;;;;;;;;;;;;;;;;;;
2023/04/01 06:27:42;;;;;;;12.90;8.30;;;10.00;99.90;;;;;;4963188;29;20212;-93
2023/04/01 06:31:18;;;;;;;11.43;8.10;;;9.90;99.90;;;;;;4988663;28;20182;-95
2023/04/01 06:34:34;;;;;;;11.73;7.83;;;10.00;99.90;;;;;;5022305;28;20663;-92
2023/04/01 06:37:40;;;;;;;11.53;8.30;;;10.00;99.90;;;;;;5046597;28;20200;-94
2023/04/01 06:47:37;;;;;;;14.47;9.27;;;10.10;99.90;;;;;;5032820;28;20174;-92
2023/04/01 06:50:45;;;;;;;13.17;8.37;;;10.10;99.90;;;;;;5018957;28;20180;-93
2023/04/01 06:53:52;;;;;;;13.97;7.90;;;10.10;99.90;;;;;;5047320;28;20185;-93
2023/04/01 06:56:35;;;;;;;11.07;6.93;;;10.20;99.90;;;;;;5040305;28;20227;-93
2023/04/01 07:00:00;;;;;;;10.27;6.70;;;10.10;99.90;;;;;;5017392;28;20178;-94
2023/04/01 07:03:22;;;;;;;;;;;;;;;;;;;;;
2023/04/01 07:06:39;;;;;;;9.33;6.60;;;10.10;99.90;;;;;;5003880;28;20181;-93
2023/04/01 07:09:50;;;;;;;8.80;6.43;;;10.10;99.90;;;;;;4954501;29;20196;-93
2023/04/01 07:13:24;;;;;;;10.80;6.60;;;10.10;99.90;;;;;;4918812;29;20192;-93
2023/04/01 07:23:25;;;;;;;6.47;4.93;;;10.20;99.90;;;;;;4960886;28;20185;-92
2023/04/01 07:26:24;;;;;;;;;;;;;;;;;;;;;
2023/04/01 07:29:34;;;;;;;5.43;4.50;;;10.10;99.90;;;;;;5046240;28;20245;-95
2023/04/01 07:32:21;;;;;;;6.57;4.23;;;10.10;99.90;;;;;;5039241;28;20193;-94
2023/04/01 07:35:25;;;;;;;;;;;;;;;;;;;;;
2023/04/01 07:41:47;;;;;;;4.50;3.60;;;10.10;99.90;;;;;;5006487;28;20525;-93
2023/04/01 07:45:03;;;;;;;5.57;3.83;;;10.20;99.90;;;;;;5052471;28;20178;-95
2023/04/01 07:48:07;;;;;;;4.27;2.90;;;10.20;99.90;;;;;;5062554;28;20161;-93
2023/04/01 07:50:57;;;;;;;4.70;3.13;;;10.20;99.90;;;;;;5027685;28;20302;-91
2023/04/01 07:54:15;;;;;;;3.73;2.67;;;10.20;99.90;;;;;;5008401;28;20187;-92
2023/04/01 07:57:11;;;;;;;4.07;2.60;;;10.10;99.90;;;;;;5047724;28;20200;-92
2023/04/01 08:00:13;;;;;;;4.00;1.90;;;10.10;99.90;;;;;;5052565;28;20173;-91
2023/04/01 08:03:15;;;;;;;2.80;2.07;;;10.10;99.90;;;;;;5006905;28;20181;-91
2023/04/01 08:06:37;;;;;;;3.10;1.90;;;10.00;99.90;;;;;;5045363;28;20173;-91
2023/04/01 08:09:48;;;;;;;2.50;1.80;;;10.10;99.90;;;;;;5029198;28;20185;-93
2023/04/01 08:12:38;;;;;;;2.57;2.00;;;10.20;99.90;;;;;;4988982;28;20197;-93
2023/04/01 08:15:37;;;;;;;2.90;1.80;;;10.30;99.90;;;;;;5058358;28;20213;-94
2023/04/01 08:18:41;;;;;;;3.23;1.90;;;10.30;99.90;;;;;;5034004;28;20185;-91
2023/04/01 08:22:10;;;;;;;;;;;;;;;;;;;;;
2023/04/01 08:25:02;;;;;;;2.27;1.50;;;10.20;99.90;;;;;;5031789;28;20173;-93
2023/04/01 08:28:07;;;;;;;3.20;2.03;;;10.20;99.90;;;;;;5048513;28;20214;-94
2023/04/01 08:30:53;;;;;;;2.77;1.87;;;10.30;99.90;;;;;;5057868;28;20678;-91
2023/04/01 08:33:35;;;;;;;2.73;2.27;;;10.30;99.90;;;;;;5056388;28;20209;-91
2023/04/01 08:36:24;;;;;;;3.20;2.30;;;10.30;99.90;;;;;;5010202;28;20205;-91
2023/04/01 08:39:12;;;;;;;3.03;2.20;;;10.40;99.90;;;;;;5055179;28;20177;-94
2023/04/01 08:42:12;;;;;;;2.43;1.70;;;10.40;99.90;;;;;;5043883;28;20184;-91
2023/04/01 08:45:16;;;;;;;2.37;1.87;;;10.30;99.90;;;;;;5061435;28;20177;-90
2023/04/01 08:48:08;;;;;;;1.90;1.50;;;10.40;99.90;;;;;;5058239;28;20532;-92
2023/04/01 08:51:44;;;;;;;4.10;1.83;;;10.40;99.90;;;;;;5076736;28;20191;-91
2023/04/01 08:54:58;;;;;;;2.80;1.43;;;10.50;99.90;;;;;;5078442;28;20184;-89
2023/04/01 08:58:06;;;;;;;1.80;1.40;;;10.50;99.90;;;;;;5069407;28;20184;-89
2023/04/01 09:03:47;;;;;;;2.53;1.33;;;10.30;99.90;;;;;;5055182;28;20180;-90
2023/04/01 09:10:39;;;;;;;3.00;1.93;;;10.10;99.90;;;;;;4980215;28;20215;-89
2023/04/01 09:13:57;;;;;;;2.60;1.87;;;10.20;99.90;;;;;;4994541;28;20180;-89
2023/04/01 09:16:56;;;;;;;2.60;1.80;;;10.20;99.90;;;;;;4992311;28;20223;-90
2023/04/01 09:19:55;;;;;;;3.03;2.40;;;10.30;99.90;;;;;;5075901;28;20169;-89
2023/04/01 09:23:16;;;;;;;4.23;2.40;;;10.30;99.90;;;;;;5053439;28;20185;-92
2023/04/01 09:26:32;;;;;;;3.63;2.30;;;10.40;99.90;;;;;;5026310;28;20181;-94
2023/04/01 09:29:41;;;;;;;3.80;2.63;;;10.40;99.90;;;;;;5062466;28;20239;-90
2023/04/01 09:32:49;;;;;;;2.67;2.17;;;10.40;99.90;;;;;;5061207;28;20247;-91
2023/04/01 09:35:59;;;;;;;4.37;2.60;;;10.50;99.90;;;;;;5058547;28;20280;-91
2023/04/01 09:39:19;;;;;;;3.40;2.17;;;10.40;99.90;;;;;;5045092;28;20559;-91
2023/04/01 09:42:00;;;;;;;3.63;2.20;;;10.50;99.90;;;;;;4981541;28;20311;-90
2023/04/01 09:44:36;;;;;;;4.03;2.53;;;10.60;99.90;;;;;;4980755;28;20242;-89
2023/04/01 09:48:04;;;;;;;3.00;2.23;;;10.70;99.90;;;;;;5042650;28;20184;-89
2023/04/01 09:51:16;;;;;;;2.40;1.90;;;10.70;99.90;;;;;;5070571;28;20176;-87
2023/04/01 09:57:54;;;;;;;3.33;1.63;;;10.70;99.90;;;;;;4903497;29;20225;-89
2023/04/01 10:01:08;;;;;;;3.30;2.03;;;10.50;99.90;;;;;;4928980;29;20769;-90
2023/04/01 10:04:27;;;;;;;2.20;1.57;;;10.50;99.90;;;;;;5015588;28;20199;-90
2023/04/01 10:07:12;;;;;;;4.37;1.87;;;10.40;99.90;;;;;;5040241;28;20200;-90
2023/04/01 10:09:46;;;;;;;4.53;2.20;;;10.40;99.90;;;;;;5047506;28;20173;-91
2023/04/01 10:12:51;;;;;;;2.20;1.70;;;10.50;99.90;;;;;;5074782;28;20191;-90
2023/04/01 10:16:04;;;;;;;2.63;2.10;;;10.60;99.90;;;;;;5046657;28;20208;-90
2023/04/01 10:19:10;;;;;;;3.20;2.27;;;10.70;99.90;;;;;;5069255;28;20176;-91
2023/04/01 10:22:24;;;;;;;3.37;1.80;;;10.60;99.90;;;;;;5064380;28;20189;-90
2023/04/01 10:25:50;;;;;;;4.33;2.30;;;10.40;99.90;;;;;;5075234;28;20165;-89
2023/04/01 10:28:57;;;;;;;3.33;1.70;;;10.70;99.90;;;;;;5038483;28;20165;-90
2023/04/01 10:32:08;;;;;;;2.77;1.60;;;10.70;99.90;;;;;;5075547;28;20217;-90
2023/04/01 10:35:01;;;;;;;2.77;1.80;;;10.80;99.90;;;;;;5070593;28;20183;-89
2023/04/01 10:37:57;;;;;;;2.03;1.70;;;11.00;99.90;;;;;;5058015;28;20167;-90
2023/04/01 10:41:02;;;;;;;2.93;1.90;;;10.90;99.90;;;;;;5076321;28;20208;-89
2023/04/01 10:43:58;;;;;;;3.70;1.60;;;11.00;99.90;;;;;;5075850;28;20219;-90
2023/04/01 10:46:53;;;;;;;2.30;1.27;;;11.10;99.90;;;;;;5076201;28;20169;-89
2023/04/01 10:50:06;;;;;;;3.60;1.60;;;11.20;99.90;;;;;;5044942;28;20188;-89
2023/04/01 10:53:09;;;;;;;2.57;1.80;;;11.10;99.90;;;;;;5063382;28;20173;-87
2023/04/01 10:56:19;;;;;;;2.33;1.40;;;10.90;99.90;;;;;;5044467;28;20200;-91
2023/04/01 10:59:40;;;;;;;3.63;2.00;;;10.90;99.90;;;;;;5044516;28;20311;-90
2023/04/01 11:03:02;;;;;;;3.07;1.77;;;10.90;99.90;;;;;;5064650;28;20223;-90
2023/04/01 11:06:21;;;;;;;3.70;1.60;;;10.90;99.90;;;;;;5065540;28;20165;-90
2023/04/01 11:09:20;;;;;;;2.33;1.90;;;10.80;99.90;;;;;;5076767;28;20154;-90
2023/04/01 11:11:51;;;;;;;4.83;2.37;;;10.80;99.90;;;;;;5062989;28;20188;-90
2023/04/01 11:14:55;;;;;;;2.90;2.07;;;10.90;99.90;;;;;;5080057;28;20200;-91
2023/04/01 11:17:39;;;;;;;2.80;2.33;;;11.00;99.90;;;;;;5066365;28;20248;-89
2023/04/01 11:20:24;;;;;;;3.77;2.40;;;11.00;99.90;;;;;;5063468;28;20236;-89
2023/04/01 11:23:00;;;;;;;4.30;2.53;;;10.90;99.90;;;;;;5063856;28;20176;-89
2023/04/01 11:26:15;;;;;;;3.73;2.90;;;10.90;99.90;;;;;;5043215;28;20199;-89
2023/04/01 11:29:21;;;;;;;5.77;3.23;;;10.80;99.90;;;;;;5063287;28;20165;-90
2023/04/01 11:32:15;;;;;;;3.47;2.43;;;10.80;99.90;;;;;;5064465;28;20189;-91
2023/04/01 11:35:18;;;;;;;3.27;2.40;;;11.00;99.90;;;;;;5061014;28;20161;-89
2023/04/01 11:38:19;;;;;;;5.80;3.07;;;11.00;99.90;;;;;;5061466;28;20168;-90
2023/04/01 11:40:54;;;;;;;3.47;2.53;;;10.70;99.90;;;;;;5042632;28;20245;-89
2023/04/01 11:43:40;;;;;;;3.10;2.40;;;10.90;99.90;;;;;;5059482;28;20263;-90
2023/04/01 11:46:15;;;;;;;3.07;2.23;;;10.90;99.90;;;;;;5045864;28;20240;-90
2023/04/01 11:48:53;;;;;;;3.60;2.43;;;10.90;99.90;;;;;;5063170;28;20220;-89
2023/04/01 11:51:40;;;;;;;3.00;1.70;;;11.00;99.90;;;;;;5044799;28;20621;-89
2023/04/01 11:54:39;;;;;;;2.63;1.83;;;10.90;99.90;;;;;;5044076;28;20196;-91
2023/04/01 11:57:44;;;;;;;3.37;2.20;;;11.00;99.90;;;;;;5036218;28;20197;-90
2023/04/01 12:00:18;;;;;;;4.73;2.13;;;11.10;99.90;;;;;;4975460;28;20216;-89
2023/04/01 12:02:50;;;;;;;4.40;2.00;;;11.00;99.90;;;;;;4971507;29;20251;-88
2023/04/01 12:05:34;;;;;;;7.00;2.73;;;11.10;99.90;;;;;;5027655;28;20246;-88
2023/04/01 12:08:11;;;;;;;4.00;1.97;;;10.90;99.90;;;;;;5042436;28;20629;-89
2023/04/01 12:11:17;;;;;;;4.10;1.93;;;10.90;99.90;;;;;;5042351;28;20187;-89
2023/04/01 12:13:53;;;;;;;3.80;2.03;;;10.90;99.90;;;;;;5058617;28;20200;-89
2023/04/01 12:16:31;;;;;;;2.53;2.27;;;11.10;99.90;;;;;;5042791;28;20656;-91
2023/04/01 12:19:20;;;;;;;4.93;2.40;;;11.10;99.90;;;;;;5044883;28;20165;-92
2023/04/01 12:21:59;;;;;;;3.17;2.47;;;11.10;99.90;;;;;;5057355;28;20173;-88
2023/04/01 12:24:58;;;;;;;4.50;2.47;;;11.10;99.90;;;;;;5041133;28;20184;-90
2023/04/01 12:27:40;;;;;;;5.27;2.90;;;11.10;99.90;;;;;;5042384;28;20191;-88
2023/04/01 12:30:15;;;;;;;4.43;2.87;;;11.00;99.90;;;;;;5040145;28;20211;-92
2023/04/01 12:33:13;;;;;;;3.63;2.53;;;11.00;99.90;;;;;;5040859;28;20592;-90
2023/04/01 12:35:55;;;;;;;4.37;2.80;;;11.20;99.90;;;;;;5023212;28;20217;-88
2023/04/01 12:38:48;;;;;;;4.43;2.40;;;11.00;99.90;;;;;;5068155;28;20177;-89
2023/04/01 12:41:46;;;;;;;5.27;3.13;;;10.80;99.90;;;;;;5029273;28;20177;-89
2023/04/01 12:44:49;;;;;;;6.43;2.60;;;10.70;99.90;;;;;;5048997;28;20327;-91
2023/04/01 12:47:43;;;;;;;4.77;2.70;;;10.70;99.90;;;;;;5041558;28;20204;-91
2023/04/01 12:50:08;;;;;;;5.20;3.00;;;10.80;99.90;;;;;;5041314;28;20628;-91
2023/04/01 12:52:45;;;;;;;6.97;3.17;;;10.70;99.90;;;;;;5057753;28;20243;-92
2023/04/01 12:55:36;;;;;;;4.33;2.37;;;10.70;99.90;;;;;;5039648;28;20205;-92
2023/04/01 12:58:20;;;;;;;5.20;2.90;;;10.70;99.90;;;;;;5040249;28;20181;-91
2023/04/01 13:01:34;;;;;;;2.87;2.37;;;10.60;99.90;;;;;;5042924;28;20171;-92
2023/04/01 13:04:18;;;;;;;3.60;2.90;;;10.60;99.90;;;;;;4984567;28;20182;-92
2023/04/01 13:07:01;;;;;;;4.07;2.53;;;10.50;99.90;;;;;;4990685;28;20542;-91
2023/04/01 13:09:43;;;;;;;4.47;2.90;;;10.50;99.90;;;;;;5027265;28;20185;-90
2023/04/01 13:12:40;;;;;;;4.23;3.00;;;10.50;99.90;;;;;;5041995;28;20260;-89
2023/04/01 13:15:06;;;;;;;4.67;2.70;;;10.50;99.90;;;;;;5070741;28;20220;-92
2023/04/01 13:17:38;;;;;;;3.60;2.40;;;10.60;99.90;;;;;;5047233;28;20189;-90
2023/04/01 13:20:23;;;;;;;2.77;1.90;;;10.60;99.90;;;;;;5047594;28;20180;-92
2023/04/01 13:23:08;;;;;;;2.70;1.90;;;10.60;99.90;;;;;;5058186;28;20162;-91
2023/04/01 13:25:53;;;;;;;3.80;2.30;;;10.60;99.90;;;;;;5057484;28;20165;-94
2023/04/01 13:28:19;;;;;;;2.47;1.83;;;10.70;99.90;;;;;;5057487;28;20184;-93
2023/04/01 13:30:57;;;;;;;2.63;1.90;;;10.80;99.90;;;;;;5054807;28;20196;-91
2023/04/01 13:33:45;;;;;;;2.70;2.00;;;10.80;99.90;;;;;;5060127;28;20161;-89
2023/04/01 13:36:32;;;;;;;3.57;2.10;;;10.70;99.90;;;;;;5060010;28;20204;-90
2023/04/01 13:39:29;;;;;;;3.10;1.80;;;10.80;99.90;;;;;;5069569;28;20236;-92
2023/04/01 13:42:37;;;;;;;2.47;1.70;;;10.80;99.90;;;;;;5047651;28;20249;-92
2023/04/01 13:45:38;;;;;;;3.63;1.70;;;10.60;99.90;;;;;;5043322;28;20164;-90
2023/04/01 13:48:32;;;;;;;3.00;1.47;;;10.60;99.90;;;;;;5056521;28;20187;-91
2023/04/01 13:51:17;;;;;;;3.27;1.60;;;10.60;99.90;;;;;;5055489;28;20219;-91
2023/04/01 13:54:25;;;;;;;2.17;1.30;;;10.60;99.90;;;;;;5059325;28;20210;-92
2023/04/01 13:56:58;;;;;;;2.10;1.30;;;10.60;99.90;;;;;;5015762;28;20252;-92
2023/04/01 13:59:25;;;;;;;1.57;1.10;;;10.70;99.90;;;;;;5040789;28;20176;-92
2023/04/01 14:02:37;;;;;;;1.90;1.50;;;10.80;99.90;;;;;;5035978;28;20177;-91
2023/04/01 14:05:21;;;;;;;3.43;1.30;;;10.60;99.90;;;;;;5035346;28;20239;-90
2023/04/01 14:08:15;;;;;;;2.10;1.20;;;10.90;99.90;;;;;;5038753;28;20173;-94
2023/04/01 14:11:00;;;;;;;3.77;1.70;;;10.80;99.90;;;;;;5067185;28;20173;-89
2023/04/01 14:13:44;;;;;;;2.10;1.60;;;10.80;99.90;;;;;;5044295;28;20552;-91
2023/04/01 14:16:23;;;;;;;2.83;1.67;;;10.90;99.90;;;;;;5042331;28;20549;-92
2023/04/01 14:18:59;;;;;;;2.93;1.90;;;11.00;99.90;;;;;;5046052;28;20157;-92
2023/04/01 14:21:28;;;;;;;2.67;1.40;;;11.00;99.90;;;;;;5059104;28;20156;-92
2023/04/01 14:24:01;;;;;;;2.30;1.47;;;11.00;99.90;;;;;;5043172;28;20172;-91
2023/04/01 14:26:56;;;;;;;3.47;1.40;;;11.00;99.90;;;;;;5039817;28;20173;-90
2023/04/01 14:29:52;;;;;;;2.60;1.70;;;11.00;99.90;;;;;;5059638;28;20197;-91
2023/04/01 14:32:43;;;;;;;2.40;1.60;;;11.00;99.90;;;;;;5054284;28;20207;-90
2023/04/01 14:35:50;;;;;;;2.93;1.57;;;10.90;99.90;;;;;;5050113;28;20216;-89
2023/04/01 14:39:07;;;;;;;2.53;1.40;;;10.70;99.90;;;;;;5079835;28;20157;-92
2023/04/01 14:41:49;;;;;;;2.80;1.60;;;10.70;99.90;;;;;;5062223;28;20177;-91
2023/04/01 14:44:46;;;;;;;2.93;1.80;;;10.80;99.90;;;;;;5061720;28;20176;-90
2023/04/01 14:47:59;;;;;;;2.77;1.60;;;10.80;99.90;;;;;;5077094;28;20219;-92
2023/04/01 14:50:40;;;;;;;2.33;1.40;;;10.90;99.90;;;;;;5039785;28;20166;-89
2023/04/01 14:53:38;;;;;;;1.57;1.17;;;11.20;99.90;;;;;;5047680;28;20212;-96
2023/04/01 14:56:05;;;;;;;4.53;2.00;;;10.90;99.90;;;;;;5033248;28;20285;-90
2023/04/01 14:58:57;;;;;;;2.47;1.30;;;10.60;99.90;;;;;;5039771;28;20582;-94
2023/04/01 15:01:46;;;;;;;2.10;1.20;;;10.60;99.90;;;;;;5033441;28;20172;-93
2023/04/01 15:04:44;;;;;;;3.20;1.10;;;10.40;99.90;;;;;;5046448;28;20173;-92
2023/04/01 15:08:00;;;;;;;2.77;1.40;;;10.40;99.90;;;;;;5056124;28;20184;-90
2023/04/01 15:10:53;;;;;;;3.10;1.47;;;10.50;99.90;;;;;;4993301;28;20233;-92
2023/04/01 15:14:10;;;;;;;3.33;1.60;;;10.50;99.90;;;;;;5044723;28;20295;-95
2023/04/01 15:17:09;;;;;;;2.30;1.60;;;10.50;99.90;;;;;;5007848;28;20278;-95
2023/04/01 15:20:02;;;;;;;3.23;1.90;;;10.60;99.90;;;;;;4990963;28;20171;-95
2023/04/01 15:23:01;;;;;;;2.03;1.27;;;10.60;99.90;;;;;;5024318;28;20185;-94
2023/04/01 15:25:30;;;;;;;3.80;1.73;;;10.50;99.90;;;;;;5064695;28;20644;-95
2023/04/01 15:28:07;;;;;;;2.63;1.57;;;10.60;99.90;;;;;;5051569;28;20177;-94
2023/04/01 15:30:55;;;;;;;3.53;1.30;;;10.60;99.90;;;;;;5071570;28;20220;-94
2023/04/01 15:33:33;;;;;;;1.43;1.30;;;10.50;99.90;;;;;;5064617;28;20249;-95
2023/04/01 15:36:03;;;;;;;2.53;1.50;;;10.40;99.90;;;;;;5065791;28;20256;-92
2023/04/01 15:39:20;;;;;;;2.73;1.33;;;10.40;99.90;;;;;;5043312;28;20184;-95
2023/04/01 15:42:11;;;;;;;2.40;1.10;;;10.40;99.90;;;;;;5054870;28;20589;-91
2023/04/01 15:44:58;;;;;;;2.03;1.10;;;10.30;99.90;;;;;;5045454;28;20177;-95
2023/04/01 15:47:23;;;;;;;4.37;1.27;;;10.20;99.90;;;;;;5043592;28;20168;-96
2023/04/01 15:49:55;;;;;;;1.57;1.00;;;10.10;99.90;;;;;;5042993;28;20192;-92
2023/04/01 15:53:02;;;;;;;2.10;1.23;;;10.40;99.90;;;;;;5045923;28;20177;-94
2023/04/01 15:55:37;;;;;;;2.10;1.50;;;10.20;99.90;;;;;;5042655;28;20534;-91
2023/04/01 15:58:18;;;;;;;4.00;1.50;;;10.30;99.90;;;;;;5060122;28;20183;-96
2023/04/01 16:00:56;;;;;;;2.27;1.20;;;10.30;99.90;;;;;;5059731;28;20189;-91
2023/04/01 16:03:40;;;;;;;1.53;1.23;;;10.40;99.90;;;;;;5047601;28;20313;-90
2023/04/01 16:06:21;;;;;;;2.80;1.57;;;10.50;99.90;;;;;;5055898;28;20161;-90
2023/04/01 16:09:25;;;;;;;3.90;1.47;;;10.50;99.90;;;;;;5061821;28;20180;-90
2023/04/01 16:12:16;;;;;;;3.50;1.40;;;10.50;99.90;;;;;;5062190;28;20181;-89
2023/04/01 16:14:59;;;;;;;1.97;1.20;;;10.40;99.90;;;;;;5062030;28;20200;-88
2023/04/01 16:17:28;;;;;;;3.60;1.50;;;10.30;99.90;;;;;;5049959;28;20188;-89
2023/04/01 16:20:22;;;;;;;2.23;1.50;;;10.20;99.90;;;;;;5043861;28;20175;-91
2023/04/01 16:23:18;;;;;;;3.23;1.53;;;10.30;99.90;;;;;;5058555;28;20185;-90
2023/04/01 16:26:02;;;;;;;2.00;1.20;;;10.30;99.90;;;;;;5040646;28;20176;-90
2023/04/01 16:28:38;;;;;;;2.50;1.50;;;10.30;99.90;;;;;;5058508;28;20659;-91
2023/04/01 16:31:12;;;;;;;3.50;1.37;;;10.20;99.90;;;;;;5052042;28;20223;-93
2023/04/01 16:33:50;;;;;;;2.33;1.40;;;10.10;99.90;;;;;;5053359;28;20180;-90
2023/04/01 16:36:41;;;;;;;2.77;1.40;;;10.10;99.90;;;;;;5048237;28;20216;-91
2023/04/01 16:39:28;;;;;;;2.20;1.40;;;10.10;99.90;;;;;;5043221;28;20200;-89
2023/04/01 16:42:16;;;;;;;2.13;1.60;;;10.00;99.90;;;;;;5050470;28;20311;-89
2023/04/01 16:45:08;;;;;;;1.90;1.50;;;10.00;99.90;;;;;;5060816;28;20183;-92
2023/04/01 16:47:48;;;;;;;3.17;1.70;;;10.10;99.90;;;;;;5061220;28;20157;-91
2023/04/01 16:50:26;;;;;;;4.10;2.40;;;10.10;99.90;;;;;;5055047;28;20271;-90
2023/04/01 16:53:15;;;;;;;5.37;2.77;;;10.20;99.90;;;;;;5049271;28;20177;-90
2023/04/01 16:56:24;;;;;;;3.90;2.20;;;10.20;99.90;;;;;;5063129;28;20632;-89
2023/04/01 16:59:26;;;;;;;3.83;1.83;;;10.20;99.90;;;;;;5043201;28;20177;-89
2023/04/01 17:02:23;;;;;;;3.70;1.73;;;10.20;99.90;;;;;;5043854;28;20223;-94
2023/04/01 17:05:09;;;;;;;4.17;1.60;;;10.20;99.90;;;;;;5048370;28;20208;-92
2023/04/01 17:08:16;;;;;;;2.47;1.90;;;10.00;99.90;;;;;;5076384;28;20177;-91
2023/04/01 17:11:01;;;;;;;3.57;1.93;;;10.10;99.90;;;;;;5056320;28;20200;-94
2023/04/01 17:14:25;;;;;;;2.77;1.90;;;10.10;99.90;;;;;;5066578;28;20184;-94
2023/04/01 17:17:17;;;;;;;3.50;2.27;;;10.00;99.90;;;;;;4994835;28;20206;-93
2023/04/01 17:20:02;;;;;;;2.77;1.80;;;10.00;99.90;;;;;;5018053;28;20179;-92
2023/04/01 17:22:58;;;;;;;5.73;2.40;;;10.00;99.90;;;;;;4998937;28;20202;-90
2023/04/01 17:25:50;;;;;;;3.30;2.50;;;9.90;99.90;;;;;;5001035;28;20175;-89
2023/04/01 17:28:30;;;;;;;3.40;1.90;;;10.00;99.90;;;;;;5031312;28;20165;-89
2023/04/01 17:31:06;;;;;;;3.57;2.00;;;10.00;99.90;;;;;;5046267;28;20214;-90
2023/04/01 17:33:45;;;;;;;3.70;2.37;;;10.00;99.90;;;;;;5041957;28;20168;-92
2023/04/01 17:36:39;;;;;;;2.47;1.87;;;10.00;99.90;;;;;;5045110;28;20227;-91
2023/04/01 17:39:43;;;;;;;4.57;2.60;;;10.00;99.90;;;;;;5063946;28;20195;-92
2023/04/01 17:42:26;;;;;;;4.13;2.73;;;10.10;99.90;;;;;;5046522;28;20176;-89
2023/04/01 17:45:23;;;;;;;4.73;3.50;;;10.10;99.90;;;;;;5040663;28;20180;-92
2023/04/01 17:48:25;;;;;;;5.67;2.80;;;10.00;99.90;;;;;;5038689;28;20235;-90
2023/04/01 17:51:26;;;;;;;3.90;2.43;;;10.10;99.90;;;;;;5039318;28;20171;-89
2023/04/01 17:53:57;;;;;;;4.33;3.30;;;10.00;99.90;;;;;;5039314;28;20188;-90
2023/04/01 17:56:44;;;;;;;4.70;4.10;;;10.00;99.90;;;;;;5039641;28;20688;-90
2023/04/01 17:59:28;;;;;;;4.60;3.30;;;10.10;99.90;;;;;;5039826;28;20198;-89
2023/04/01 18:02:25;;;;;;;7.00;5.50;;;10.00;99.90;;;;;;5040359;28;20243;-92
2023/04/01 18:05:03;;;;;;;6.70;4.63;;;9.90;99.90;;;;;;5040679;28;20169;-92
2023/04/01 18:07:47;;;;;;;7.63;4.23;;;10.00;99.90;;;;;;5042575;28;20212;-92
2023/04/01 18:10:31;;;;;;;9.97;8.53;;;10.00;99.90;;;;;;5041003;28;20234;-93
2023/04/01 18:13:28;;;;;;;6.27;5.67;;;10.00;99.90;;;;;;5040308;28;20188;-92
2023/04/01 18:16:37;;;;;;;9.43;8.33;;;10.00;99.90;;;;;;5048799;28;20193;-92